createdAt,value
2018-11-26T00:04:02.923Z,66.1
2018-11-26T00:09:05.852Z,66.3
2018-11-26T00:14:07.371Z,66.8
2018-11-26T00:19:15.381Z,66.7
2018-11-26T00:24:23.021Z,66.6
2018-11-26T00:29:25.441Z,66.6
2018-11-26T00:34:27.111Z,67
2018-11-26T00:39:26.803Z,67
2018-11-26T00:44:30.497Z,67
2018-11-26T00:49:29.337Z,67.3
2018-11-26T00:54:39.053Z,67.1
2018-11-26T00:59:43.187Z,66.9
2018-11-26T01:04:53.934Z,66.9
2018-11-26T01:09:57.777Z,66.9
2018-11-26T01:15:09.309Z,67
2018-11-26T01:20:18.217Z,67.2
2018-11-26T01:25:27.458Z,67.4
2018-11-26T01:30:27.690Z,67.8
2018-11-26T01:35:31.408Z,68.5
2018-11-26T01:40:33.083Z,68.4
2018-11-26T01:45:35.855Z,68.5
2018-11-26T01:50:42.339Z,68.3
2018-11-26T01:55:39.677Z,68.3
2018-11-26T02:00:35.956Z,68.6
2018-11-26T02:05:35.717Z,68.9
2018-11-26T02:10:32.701Z,69.2
2018-11-26T02:15:30.888Z,68.8
2018-11-26T02:20:27.745Z,68.7
2018-11-26T02:25:25.789Z,69.1
2018-11-26T02:30:23.674Z,69
2018-11-26T02:35:22.143Z,68.9
2018-11-26T02:40:18.326Z,68.6
2018-11-26T02:45:16.003Z,68.8
2018-11-26T02:50:14.248Z,68.5
2018-11-26T02:55:11.655Z,68.7
2018-11-26T03:00:10.674Z,69.2
2018-11-26T03:05:09.246Z,69
2018-11-26T03:10:07.554Z,68.9
2018-11-26T03:15:06.111Z,68.8
2018-11-26T03:20:02.557Z,68.8
2018-11-26T03:25:00.023Z,68.7
2018-11-26T03:29:56.897Z,68.7
2018-11-26T03:34:55.632Z,68.7
2018-11-26T03:39:52.023Z,68.6
2018-11-26T03:44:50.569Z,68.9
2018-11-26T03:49:47.779Z,68.9
2018-11-26T03:54:47.145Z,68.9
2018-11-26T03:59:45.471Z,68.9
2018-11-26T04:04:43.200Z,69
2018-11-26T04:09:41.459Z,68.5
2018-11-26T04:14:39.628Z,68.4
2018-11-26T04:19:38.615Z,68.5
2018-11-26T04:24:34.802Z,68.2
2018-11-26T04:29:33.808Z,68.4
2018-11-26T04:34:44.928Z,68.3
2018-11-26T04:39:49.938Z,68.2
2018-11-26T04:44:51.258Z,68.3
2018-11-26T04:49:46.599Z,68.4
2018-11-26T04:54:43.552Z,68.5
2018-11-26T04:59:40.775Z,68.5
2018-11-26T05:04:37.890Z,68.4
2018-11-26T05:09:34.881Z,68.5
2018-11-26T05:14:31.564Z,68.6
2018-11-26T05:19:28.897Z,68.7
2018-11-26T05:24:25.686Z,68.6
2018-11-26T05:29:20.140Z,68.8
2018-11-26T05:34:16.901Z,68.9
2018-11-26T05:39:16.698Z,69.3
2018-11-26T05:44:13.219Z,68.9
2018-11-26T05:49:11.303Z,69
2018-11-26T05:54:10.187Z,69.1
2018-11-26T05:59:06.510Z,69.3
2018-11-26T06:04:05.585Z,69.3
2018-11-26T06:09:04.740Z,69
2018-11-26T06:14:00.229Z,68.9
2018-11-26T06:18:59.024Z,68.7
2018-11-26T06:23:55.450Z,68.8
2018-11-26T06:28:53.935Z,68.6
2018-11-26T06:33:53.090Z,68.7
2018-11-26T06:38:49.045Z,69
2018-11-26T06:43:46.004Z,68.8
2018-11-26T06:48:46.195Z,68.7
2018-11-26T06:53:44.624Z,68.6
2018-11-26T06:58:41.052Z,69.1
2018-11-26T07:03:39.951Z,69
2018-11-26T07:08:35.950Z,68.9
2018-11-26T07:13:33.155Z,68.8
2018-11-26T07:18:29.682Z,69
2018-11-26T07:23:26.837Z,68.9
2018-11-26T07:28:23.562Z,69
2018-11-26T07:33:20.278Z,68.9
2018-11-26T07:38:16.846Z,68.8
2018-11-26T07:43:13.706Z,69.3
2018-11-26T07:48:10.723Z,68.8
2018-11-26T07:53:07.876Z,68.6
2018-11-26T07:58:04.632Z,68.7
2018-11-26T08:03:01.319Z,68.8
2018-11-26T08:07:57.778Z,69
2018-11-26T08:12:55.156Z,69
2018-11-26T08:17:51.859Z,68.9
2018-11-26T08:22:48.327Z,68.7
2018-11-26T08:27:45.115Z,68.7
2018-11-26T08:32:41.992Z,68.6
2018-11-26T08:37:38.841Z,68.6
2018-11-26T08:42:35.568Z,68.6
2018-11-26T08:47:32.642Z,68.6
2018-11-26T08:52:29.796Z,68.4
2018-11-26T08:57:26.794Z,68.2
2018-11-26T09:02:23.170Z,68.2
2018-11-26T09:07:20.071Z,68.1
2018-11-26T09:12:16.828Z,68
2018-11-26T09:17:13.661Z,68
2018-11-26T09:22:10.357Z,68
2018-11-26T09:27:09.795Z,68.3
2018-11-26T09:32:03.675Z,68.3
2018-11-26T09:37:00.360Z,68.4
2018-11-26T09:41:57.309Z,68.3
2018-11-26T09:46:54.231Z,68.3
2018-11-26T09:51:51.440Z,68
2018-11-26T09:56:48.059Z,67.8
2018-11-26T10:01:45.048Z,67.6
2018-11-26T10:06:41.810Z,67.4
2018-11-26T10:11:38.109Z,67.7
2018-11-26T10:16:35.055Z,66.9
2018-11-26T10:21:32.212Z,66.6
2018-11-26T10:26:29.285Z,66.4
2018-11-26T10:31:26.299Z,66.5
2018-11-26T10:36:23.328Z,66.4
2018-11-26T10:41:20.146Z,65.8
2018-11-26T10:46:16.960Z,66.1
2018-11-26T10:51:14.111Z,66
2018-11-26T10:56:10.920Z,65.8
2018-11-26T11:01:08.018Z,65.8
2018-11-26T11:06:05.003Z,65.9
2018-11-26T11:11:01.924Z,65.7
2018-11-26T11:15:58.822Z,65.7
2018-11-26T11:20:55.789Z,65.4
2018-11-26T11:25:52.750Z,65.5
2018-11-26T11:30:49.721Z,65.7
2018-11-26T11:35:46.693Z,65.8
2018-11-26T11:40:44.032Z,65.9
2018-11-26T11:45:40.863Z,65.7
2018-11-26T11:50:37.821Z,65.4
2018-11-26T11:55:34.634Z,65.5
2018-11-26T12:00:31.559Z,65.5
2018-11-26T12:05:28.779Z,65.4
2018-11-26T12:10:25.565Z,65.2
2018-11-26T12:15:22.416Z,65.5
2018-11-26T12:20:19.666Z,65.7
2018-11-26T12:25:17.137Z,65.8
2018-11-26T12:30:14.043Z,66
2018-11-26T12:35:10.923Z,65.9
2018-11-26T12:40:08.037Z,65.7
2018-11-26T12:45:05.110Z,65.4
2018-11-26T12:50:02.415Z,65.5
2018-11-26T12:54:59.359Z,65.6
2018-11-26T12:59:56.509Z,65.8
2018-11-26T13:04:53.889Z,66
2018-11-26T13:09:50.407Z,66.1
2018-11-26T13:14:47.396Z,66.5
2018-11-26T13:19:44.370Z,66.4
2018-11-26T13:24:41.070Z,66.5
2018-11-26T13:29:37.922Z,66.5
2018-11-26T13:34:34.844Z,66.5
2018-11-26T13:39:31.665Z,66.5
2018-11-26T13:44:28.945Z,66.6
2018-11-26T13:49:26.410Z,66.8
2018-11-26T13:54:22.599Z,66.7
2018-11-26T13:59:19.473Z,66.7
2018-11-26T14:04:17.169Z,66.5
2018-11-26T14:09:14.212Z,66.4
2018-11-26T14:14:10.890Z,66.6
2018-11-26T14:19:07.938Z,66.7
2018-11-26T14:24:04.844Z,66.8
2018-11-26T14:29:01.763Z,66.6
2018-11-26T14:33:58.727Z,66.6
2018-11-26T14:38:55.696Z,66.7
2018-11-26T14:43:52.737Z,66.6
2018-11-26T14:48:49.829Z,66.7
2018-11-26T14:53:46.535Z,66.9
2018-11-26T14:58:43.655Z,66.9
2018-11-26T15:03:40.701Z,66.9
2018-11-26T15:08:37.433Z,66.9
2018-11-26T15:13:34.213Z,66.8
2018-11-26T15:18:31.209Z,66.9
2018-11-26T15:23:28.047Z,66.7
2018-11-26T15:28:24.887Z,66.5
2018-11-26T15:33:21.867Z,66.3
2018-11-26T15:38:18.922Z,66.5
2018-11-26T15:43:15.848Z,66.6
2018-11-26T15:48:12.622Z,66.5
2018-11-26T15:53:09.596Z,66.8
2018-11-26T15:58:06.682Z,66.5
2018-11-26T16:03:03.511Z,66.5
2018-11-26T16:08:00.537Z,66.3
2018-11-26T16:12:57.447Z,66.3
2018-11-26T16:17:54.358Z,66.1
2018-11-26T16:22:51.177Z,66.2
2018-11-26T16:27:48.173Z,65.3
2018-11-26T16:32:45.286Z,65.5
2018-11-26T16:37:42.205Z,65.4
2018-11-26T16:42:39.441Z,65.6
2018-11-26T16:47:36.221Z,65.6
2018-11-26T16:52:33.120Z,65.7
2018-11-26T16:57:30.075Z,65.7
2018-11-26T17:02:26.686Z,65.6
2018-11-26T17:07:23.870Z,65.6
2018-11-26T17:12:20.462Z,65.6
2018-11-26T17:17:17.340Z,65.4
2018-11-26T17:22:14.371Z,64.5
2018-11-26T17:27:12.643Z,64.5
2018-11-26T17:32:08.588Z,64.5
2018-11-26T17:37:05.347Z,64.8
2018-11-26T17:42:02.406Z,64.6
2018-11-26T17:46:58.914Z,64.7
2018-11-26T17:51:55.751Z,64.8
2018-11-26T17:56:53.098Z,64.6
2018-11-26T18:01:49.863Z,64.2
2018-11-26T18:06:47.530Z,64.4
2018-11-26T18:11:43.743Z,64.2
2018-11-26T18:16:40.917Z,64.1
2018-11-26T18:21:37.683Z,64
2018-11-26T18:26:34.867Z,64.1
2018-11-26T18:31:32.320Z,64.2
2018-11-26T18:36:29.372Z,63.9
2018-11-26T18:41:26.302Z,64.4
2018-11-26T18:46:22.730Z,64.4
2018-11-26T18:51:19.855Z,64.4
2018-11-26T18:56:16.879Z,64.5
2018-11-26T19:01:13.956Z,65
2018-11-26T19:06:10.874Z,65
2018-11-26T19:11:08.109Z,65.3
2018-11-26T19:16:04.998Z,65.6
2018-11-26T19:21:01.939Z,66.1
2018-11-26T19:25:58.461Z,66.6
2018-11-26T19:30:55.469Z,66.8
2018-11-26T19:35:52.513Z,66.9
2018-11-26T19:40:49.244Z,67.6
2018-11-26T19:45:46.175Z,67.5
2018-11-26T19:50:43.196Z,67.8
2018-11-26T19:55:40.090Z,67.6
2018-11-26T20:00:37.231Z,67.8
2018-11-26T20:05:34.243Z,68.2
2018-11-26T20:10:31.055Z,68.2
2018-11-26T20:15:27.831Z,67.9
2018-11-26T20:20:24.669Z,68.2
2018-11-26T20:25:21.740Z,68.5
2018-11-26T20:30:18.900Z,68.3
2018-11-26T20:35:15.994Z,68.4
2018-11-26T20:40:12.811Z,68.4
2018-11-26T20:45:09.914Z,68.4
2018-11-26T20:50:06.753Z,68.6
2018-11-26T20:55:03.796Z,68.7
2018-11-26T21:00:01.004Z,68.6
2018-11-26T21:04:57.720Z,68.6
2018-11-26T21:09:55.148Z,68.6
2018-11-26T21:14:51.931Z,68.6
2018-11-26T21:19:49.814Z,68.7
2018-11-26T21:24:45.933Z,69
2018-11-26T21:29:42.997Z,68.7
2018-11-26T21:34:40.090Z,68.8
2018-11-26T21:39:36.931Z,68.8
2018-11-26T21:44:33.819Z,68.7
2018-11-26T21:49:30.738Z,68.7
2018-11-26T21:54:27.945Z,68.9
2018-11-26T21:59:25.041Z,68.9
2018-11-26T22:04:22.097Z,68.8
2018-11-26T22:09:19.623Z,68.9
2018-11-26T22:14:16.511Z,69.3
2018-11-26T22:19:13.856Z,69.8
2018-11-26T22:24:10.708Z,69.8
2018-11-26T22:29:07.540Z,69.9
2018-11-26T22:34:04.561Z,70.3
2018-11-26T22:39:01.722Z,70.2
2018-11-26T22:43:58.628Z,70.8
2018-11-26T22:48:55.686Z,71.4
2018-11-26T22:53:52.825Z,71.4
2018-11-26T22:58:50.386Z,70.1
2018-11-26T23:03:47.285Z,66.6
2018-11-26T23:08:44.393Z,65.4
2018-11-26T23:13:41.330Z,66.3
2018-11-26T23:18:38.042Z,66.6
2018-11-26T23:23:34.961Z,67.4
2018-11-26T23:28:31.856Z,67
2018-11-26T23:33:28.714Z,67.2
2018-11-26T23:38:25.897Z,68.6
2018-11-26T23:43:22.967Z,69
2018-11-26T23:48:19.952Z,68.1
2018-11-26T23:53:17.514Z,67.9
2018-11-26T23:58:14.258Z,68
